createdAt,value
2018-11-22T12:20:35.674Z,64.97
2018-11-22T12:25:38.345Z,64.80
2018-11-22T12:30:41.009Z,64.58
2018-11-22T12:35:49.475Z,64.31
2018-11-22T12:40:52.255Z,64.49
2018-11-22T12:45:54.935Z,64.81
2018-11-22T12:50:57.660Z,64.62
2018-11-22T12:56:00.805Z,65.07
2018-11-22T13:01:04.198Z,64.53
2018-11-22T13:06:06.922Z,64.67
2018-11-22T13:11:09.593Z,65.17
2018-11-22T13:16:12.230Z,65.16
2018-11-22T13:21:14.847Z,64.29
2018-11-22T13:26:17.686Z,64.27
2018-11-22T13:31:20.347Z,64.86
2018-11-22T13:36:23.010Z,64.48
2018-11-22T13:41:25.625Z,64.81
2018-11-22T13:46:28.296Z,65.28
2018-11-22T13:51:31.006Z,64.32
2018-11-22T13:56:33.765Z,64.93
2018-11-22T14:01:36.400Z,65.28
2018-11-22T14:06:39.032Z,64.92
2018-11-22T14:11:41.679Z,65.33
2018-11-22T14:16:44.370Z,64.98
2018-11-22T14:21:47.146Z,65.19
2018-11-22T14:26:49.966Z,65.34
2018-11-22T14:31:52.703Z,65.57
2018-11-22T14:36:55.506Z,65.02
2018-11-22T14:41:58.182Z,64.95
2018-11-22T14:47:00.995Z,65.24
2018-11-22T14:52:03.840Z,65.71
2018-11-22T14:57:07.582Z,65.39
2018-11-22T15:02:10.224Z,65.93
2018-11-22T15:07:12.916Z,65.84
2018-11-22T15:12:15.649Z,65.73
2018-11-22T15:17:18.275Z,66.02
2018-11-22T15:22:20.910Z,65.62
2018-11-22T15:27:23.647Z,65.42
2018-11-22T15:32:26.311Z,65.74
2018-11-22T15:37:29.034Z,65.47
2018-11-22T15:42:31.642Z,65.79
2018-11-22T15:47:34.290Z,65.46
2018-11-22T15:52:37.230Z,65.88
2018-11-22T15:57:40.728Z,66.02
2018-11-22T16:02:44.262Z,65.77
2018-11-22T16:07:46.910Z,65.42
2018-11-22T16:12:51.798Z,65.58
2018-11-22T16:17:54.503Z,65.27
2018-11-22T16:22:57.256Z,65.05
2018-11-22T16:27:59.917Z,65.91
2018-11-22T16:33:02.661Z,66.17
2018-11-22T16:38:05.666Z,65.87
2018-11-22T16:43:08.324Z,66.08
2018-11-22T16:48:12.181Z,66.43
2018-11-22T16:53:14.824Z,66.24
2018-11-22T16:58:17.462Z,66.00
2018-11-22T17:03:20.107Z,66.22
2018-11-22T17:08:22.745Z,66.00
2018-11-22T17:13:25.379Z,66.42
2018-11-22T17:18:28.001Z,66.47
2018-11-22T17:23:30.612Z,65.74
2018-11-22T17:28:33.257Z,65.65
2018-11-22T17:33:35.990Z,66.38
2018-11-22T17:38:38.634Z,65.92
2018-11-22T17:43:41.310Z,66.37
2018-11-22T17:48:43.959Z,65.32
2018-11-22T17:53:46.567Z,66.32
2018-11-22T17:58:49.281Z,66.65
2018-11-22T18:03:52.015Z,66.55
2018-11-22T18:08:54.721Z,66.63
2018-11-22T18:13:57.338Z,65.88
2018-11-22T18:18:59.938Z,66.16
2018-11-22T18:24:02.582Z,66.50
2018-11-22T18:29:05.382Z,66.34
2018-11-22T18:34:08.015Z,66.46
2018-11-22T18:39:10.614Z,67.02
2018-11-22T18:44:13.776Z,66.24
2018-11-22T18:49:16.410Z,66.88
2018-11-22T18:54:19.025Z,67.87
2018-11-22T18:59:21.602Z,66.78
2018-11-22T19:04:24.307Z,67.32
2018-11-22T19:09:26.888Z,67.60
2018-11-22T19:14:29.503Z,67.91
2018-11-22T19:19:32.147Z,68.02
2018-11-22T19:24:34.834Z,67.97
2018-11-22T19:29:37.441Z,67.79
2018-11-22T19:34:40.083Z,67.49
2018-11-22T19:39:42.937Z,67.88
2018-11-22T19:44:45.644Z,68.22
2018-11-22T19:49:48.295Z,68.47
2018-11-22T19:54:51.074Z,68.36
2018-11-22T19:59:53.815Z,68.55
2018-11-22T20:04:56.470Z,68.09
2018-11-22T20:09:59.305Z,67.96
2018-11-22T20:15:03.490Z,68.44
2018-11-22T20:20:08.366Z,68.73
2018-11-22T20:25:10.986Z,68.47
2018-11-22T20:30:17.024Z,69.47
2018-11-22T20:35:20.434Z,69.05
2018-11-22T20:40:24.326Z,68.56
2018-11-22T20:45:27.806Z,68.89
2018-11-22T20:50:31.116Z,68.79
2018-11-22T20:55:35.130Z,69.18
2018-11-22T21:00:39.258Z,69.52
2018-11-22T21:05:41.819Z,68.93
2018-11-22T21:10:44.429Z,68.63
2018-11-22T21:15:47.042Z,68.67
2018-11-22T21:20:49.654Z,69.71
2018-11-22T21:25:52.323Z,69.71
2018-11-22T21:30:54.941Z,69.50
2018-11-22T21:35:58.444Z,69.36
2018-11-22T21:41:01.100Z,69.84
2018-11-22T21:46:04.056Z,69.42
2018-11-22T21:51:06.677Z,69.51
2018-11-22T21:56:09.259Z,69.78
2018-11-22T22:01:11.860Z,69.03
2018-11-22T22:06:14.465Z,68.41
2018-11-22T22:11:17.041Z,69.32
2018-11-22T22:16:19.759Z,68.74
2018-11-22T22:21:22.488Z,68.27
2018-11-22T22:26:25.355Z,68.64
2018-11-22T22:31:27.947Z,68.47
2018-11-22T22:36:30.554Z,68.42
2018-11-22T22:41:33.147Z,68.69
2018-11-22T22:46:35.911Z,69.14
2018-11-22T22:51:38.663Z,69.00
2018-11-22T22:56:41.539Z,68.78
2018-11-22T23:01:44.380Z,68.41
2018-11-22T23:06:47.182Z,68.64
2018-11-22T23:11:49.946Z,68.49
2018-11-22T23:16:52.727Z,68.00
2018-11-22T23:21:55.380Z,68.24
2018-11-22T23:26:58.031Z,68.38
2018-11-22T23:32:00.830Z,68.03
2018-11-22T23:42:02.245Z,68.30
2018-11-22T23:47:05.098Z,68.60
2018-11-22T23:52:07.752Z,68.73
2018-11-22T23:57:10.327Z,68.42
